sensor_id;sensor_type;location;lat;lon;timestamp;P1;durP1;ratioP1;P2;durP2;ratioP2
58240;SDS011;45058;55.772;38.224;2023-02-13T00:02:14;17.03;;;5.23;;
58240;SDS011;45058;55.772;38.224;2023-02-13T00:04:40;23.90;;;5.93;;
58240;SDS011;45058;55.772;38.224;2023-02-13T00:07:09;13.67;;;5.30;;
58240;SDS011;45058;55.772;38.224;2023-02-13T00:09:36;15.03;;;4.97;;
58240;SDS011;45058;55.772;38.224;2023-02-13T00:12:03;13.63;;;4.73;;
58240;SDS011;45058;55.772;38.224;2023-02-13T00:14:33;13.10;;;4.80;;
58240;SDS011;45058;55.772;38.224;2023-02-13T00:16:59;14.90;;;6.20;;
58240;SDS011;45058;55.772;38.224;2023-02-13T00:19:25;13.40;;;4.80;;
58240;SDS011;45058;55.772;38.224;2023-02-13T00:21:51;13.87;;;4.70;;
58240;SDS011;45058;55.772;38.224;2023-02-13T00:24:17;10.10;;;5.23;;
58240;SDS011;45058;55.772;38.224;2023-02-13T00:26:43;14.33;;;5.23;;
58240;SDS011;45058;55.772;38.224;2023-02-13T00:29:09;10.87;;;4.67;;
58240;SDS011;45058;55.772;38.224;2023-02-13T00:31:36;15.50;;;4.83;;
58240;SDS011;45058;55.772;38.224;2023-02-13T00:34:02;18.97;;;5.40;;
58240;SDS011;45058;55.772;38.224;2023-02-13T00:36:28;9.67;;;4.30;;
58240;SDS011;45058;55.772;38.224;2023-02-13T00:38:55;14.03;;;4.73;;
58240;SDS011;45058;55.772;38.224;2023-02-13T00:41:21;10.93;;;4.70;;
58240;SDS011;45058;55.772;38.224;2023-02-13T00:43:49;13.23;;;5.40;;
58240;SDS011;45058;55.772;38.224;2023-02-13T00:46:15;12.93;;;4.97;;
58240;SDS011;45058;55.772;38.224;2023-02-13T00:48:42;10.57;;;4.80;;
58240;SDS011;45058;55.772;38.224;2023-02-13T00:51:08;11.60;;;4.43;;
58240;SDS011;45058;55.772;38.224;2023-02-13T00:53:35;9.53;;;4.50;;
58240;SDS011;45058;55.772;38.224;2023-02-13T00:56:01;12.87;;;5.47;;
58240;SDS011;45058;55.772;38.224;2023-02-13T00:58:28;10.30;;;4.83;;
58240;SDS011;45058;55.772;38.224;2023-02-13T01:00:54;14.20;;;4.83;;
58240;SDS011;45058;55.772;38.224;2023-02-13T01:03:20;17.87;;;4.60;;
58240;SDS011;45058;55.772;38.224;2023-02-13T01:05:47;12.27;;;5.00;;
58240;SDS011;45058;55.772;38.224;2023-02-13T01:08:14;10.73;;;4.77;;
58240;SDS011;45058;55.772;38.224;2023-02-13T01:10:41;10.43;;;4.43;;
58240;SDS011;45058;55.772;38.224;2023-02-13T01:13:08;12.47;;;6.23;;
58240;SDS011;45058;55.772;38.224;2023-02-13T01:15:34;14.77;;;5.60;;
58240;SDS011;45058;55.772;38.224;2023-02-13T01:18:01;12.90;;;5.17;;
58240;SDS011;45058;55.772;38.224;2023-02-13T01:20:27;13.60;;;6.07;;
58240;SDS011;45058;55.772;38.224;2023-02-13T01:22:54;19.03;;;6.40;;
58240;SDS011;45058;55.772;38.224;2023-02-13T01:25:21;14.47;;;6.40;;
58240;SDS011;45058;55.772;38.224;2023-02-13T01:27:48;14.53;;;6.70;;
58240;SDS011;45058;55.772;38.224;2023-02-13T01:30:17;18.10;;;7.83;;
58240;SDS011;45058;55.772;38.224;2023-02-13T01:32:43;10.37;;;5.87;;
58240;SDS011;45058;55.772;38.224;2023-02-13T01:35:12;19.07;;;6.27;;
58240;SDS011;45058;55.772;38.224;2023-02-13T01:37:39;13.27;;;6.43;;
58240;SDS011;45058;55.772;38.224;2023-02-13T01:40:06;16.37;;;6.63;;
58240;SDS011;45058;55.772;38.224;2023-02-13T01:42:34;14.07;;;6.43;;
58240;SDS011;45058;55.772;38.224;2023-02-13T01:45:01;13.77;;;5.30;;
58240;SDS011;45058;55.772;38.224;2023-02-13T01:52:37;14.63;;;5.83;;
58240;SDS011;45058;55.772;38.224;2023-02-13T01:55:06;14.00;;;6.40;;
58240;SDS011;45058;55.772;38.224;2023-02-13T01:57:32;11.87;;;6.07;;
58240;SDS011;45058;55.772;38.224;2023-02-13T01:59:59;19.07;;;5.83;;
58240;SDS011;45058;55.772;38.224;2023-02-13T02:02:44;11.27;;;5.20;;
58240;SDS011;45058;55.772;38.224;2023-02-13T02:05:16;12.37;;;5.10;;
58240;SDS011;45058;55.772;38.224;2023-02-13T02:07:44;14.87;;;6.37;;
58240;SDS011;45058;55.772;38.224;2023-02-13T02:10:13;11.87;;;5.60;;
58240;SDS011;45058;55.772;38.224;2023-02-13T02:13:01;9.90;;;5.33;;
58240;SDS011;45058;55.772;38.224;2023-02-13T02:15:32;11.33;;;5.20;;
58240;SDS011;45058;55.772;38.224;2023-02-13T02:17:58;9.20;;;4.70;;
58240;SDS011;45058;55.772;38.224;2023-02-13T02:25:58;12.17;;;4.83;;
58240;SDS011;45058;55.772;38.224;2023-02-13T02:37:04;9.40;;;5.00;;
58240;SDS011;45058;55.772;38.224;2023-02-13T02:50:49;12.43;;;4.63;;
58240;SDS011;45058;55.772;38.224;2023-02-13T02:53:31;12.10;;;5.13;;
58240;SDS011;45058;55.772;38.224;2023-02-13T02:56:04;15.67;;;4.23;;
58240;SDS011;45058;55.772;38.224;2023-02-13T03:01:20;10.67;;;4.57;;
58240;SDS011;45058;55.772;38.224;2023-02-13T03:04:10;13.30;;;5.10;;
58240;SDS011;45058;55.772;38.224;2023-02-13T03:07:05;13.40;;;4.77;;
58240;SDS011;45058;55.772;38.224;2023-02-13T03:09:34;13.20;;;5.10;;
58240;SDS011;45058;55.772;38.224;2023-02-13T03:12:23;12.23;;;5.10;;
58240;SDS011;45058;55.772;38.224;2023-02-13T03:15:10;18.23;;;5.63;;
58240;SDS011;45058;55.772;38.224;2023-02-13T03:17:36;15.00;;;5.57;;
58240;SDS011;45058;55.772;38.224;2023-02-13T03:32:27;13.80;;;6.03;;
58240;SDS011;45058;55.772;38.224;2023-02-13T03:35:03;16.53;;;6.50;;
58240;SDS011;45058;55.772;38.224;2023-02-13T03:38:32;15.30;;;5.60;;
58240;SDS011;45058;55.772;38.224;2023-02-13T03:41:18;14.43;;;6.43;;
58240;SDS011;45058;55.772;38.224;2023-02-13T03:44:19;16.37;;;5.97;;
58240;SDS011;45058;55.772;38.224;2023-02-13T03:47:02;16.80;;;6.97;;
58240;SDS011;45058;55.772;38.224;2023-02-13T03:52:38;15.30;;;6.87;;
58240;SDS011;45058;55.772;38.224;2023-02-13T03:55:20;15.97;;;7.67;;
58240;SDS011;45058;55.772;38.224;2023-02-13T04:00:53;16.20;;;7.00;;
58240;SDS011;45058;55.772;38.224;2023-02-13T04:03:23;15.40;;;6.83;;
58240;SDS011;45058;55.772;38.224;2023-02-13T04:06:40;17.73;;;7.60;;
58240;SDS011;45058;55.772;38.224;2023-02-13T04:09:05;14.87;;;6.57;;
58240;SDS011;45058;55.772;38.224;2023-02-13T04:11:35;18.17;;;6.97;;
58240;SDS011;45058;55.772;38.224;2023-02-13T04:14:06;16.37;;;6.47;;
58240;SDS011;45058;55.772;38.224;2023-02-13T04:16:40;19.03;;;7.60;;
58240;SDS011;45058;55.772;38.224;2023-02-13T04:19:08;18.83;;;7.67;;
58240;SDS011;45058;55.772;38.224;2023-02-13T04:21:35;16.43;;;7.50;;
58240;SDS011;45058;55.772;38.224;2023-02-13T04:24:02;12.63;;;6.90;;
58240;SDS011;45058;55.772;38.224;2023-02-13T04:26:33;17.33;;;7.70;;
58240;SDS011;45058;55.772;38.224;2023-02-13T04:29:01;15.23;;;6.90;;
58240;SDS011;45058;55.772;38.224;2023-02-13T04:31:27;11.17;;;6.03;;
58240;SDS011;45058;55.772;38.224;2023-02-13T04:33:53;13.57;;;6.33;;
58240;SDS011;45058;55.772;38.224;2023-02-13T04:36:19;14.13;;;6.33;;
58240;SDS011;45058;55.772;38.224;2023-02-13T04:38:44;16.57;;;6.77;;
58240;SDS011;45058;55.772;38.224;2023-02-13T04:41:11;13.33;;;6.67;;
58240;SDS011;45058;55.772;38.224;2023-02-13T04:43:37;13.13;;;6.60;;
58240;SDS011;45058;55.772;38.224;2023-02-13T04:46:03;16.00;;;7.10;;
58240;SDS011;45058;55.772;38.224;2023-02-13T04:48:29;18.70;;;6.07;;
58240;SDS011;45058;55.772;38.224;2023-02-13T04:50:55;12.47;;;5.87;;
58240;SDS011;45058;55.772;38.224;2023-02-13T04:53:21;17.50;;;6.33;;
58240;SDS011;45058;55.772;38.224;2023-02-13T04:55:47;16.33;;;7.37;;
58240;SDS011;45058;55.772;38.224;2023-02-13T04:58:13;16.27;;;8.03;;
58240;SDS011;45058;55.772;38.224;2023-02-13T05:00:39;17.40;;;5.90;;
58240;SDS011;45058;55.772;38.224;2023-02-13T05:03:06;14.70;;;6.17;;
58240;SDS011;45058;55.772;38.224;2023-02-13T05:05:33;16.47;;;5.73;;
58240;SDS011;45058;55.772;38.224;2023-02-13T05:08:00;11.37;;;5.33;;
58240;SDS011;45058;55.772;38.224;2023-02-13T05:10:26;12.87;;;5.90;;
58240;SDS011;45058;55.772;38.224;2023-02-13T05:12:52;18.10;;;6.33;;
58240;SDS011;45058;55.772;38.224;2023-02-13T05:15:19;10.17;;;5.70;;
58240;SDS011;45058;55.772;38.224;2023-02-13T05:17:45;12.23;;;6.10;;
58240;SDS011;45058;55.772;38.224;2023-02-13T05:20:12;14.13;;;5.47;;
58240;SDS011;45058;55.772;38.224;2023-02-13T05:22:45;15.17;;;5.00;;
58240;SDS011;45058;55.772;38.224;2023-02-13T05:25:30;16.30;;;6.23;;
58240;SDS011;45058;55.772;38.224;2023-02-13T05:27:57;17.17;;;5.93;;
58240;SDS011;45058;55.772;38.224;2023-02-13T05:30:23;17.63;;;6.23;;
58240;SDS011;45058;55.772;38.224;2023-02-13T05:32:49;17.33;;;7.63;;
58240;SDS011;45058;55.772;38.224;2023-02-13T05:35:20;18.47;;;6.70;;
58240;SDS011;45058;55.772;38.224;2023-02-13T05:37:46;14.03;;;5.87;;
58240;SDS011;45058;55.772;38.224;2023-02-13T05:40:13;10.67;;;6.03;;
58240;SDS011;45058;55.772;38.224;2023-02-13T05:42:40;11.40;;;4.43;;
58240;SDS011;45058;55.772;38.224;2023-02-13T05:45:06;12.13;;;4.70;;
58240;SDS011;45058;55.772;38.224;2023-02-13T05:47:34;14.17;;;5.17;;
58240;SDS011;45058;55.772;38.224;2023-02-13T05:50:00;11.37;;;5.23;;
58240;SDS011;45058;55.772;38.224;2023-02-13T05:52:28;9.70;;;4.70;;
58240;SDS011;45058;55.772;38.224;2023-02-13T05:54:54;12.60;;;5.27;;
58240;SDS011;45058;55.772;38.224;2023-02-13T05:57:20;9.30;;;4.37;;
58240;SDS011;45058;55.772;38.224;2023-02-13T05:59:46;12.30;;;5.00;;
58240;SDS011;45058;55.772;38.224;2023-02-13T06:02:12;11.87;;;5.03;;
58240;SDS011;45058;55.772;38.224;2023-02-13T06:04:38;11.13;;;3.93;;
58240;SDS011;45058;55.772;38.224;2023-02-13T06:07:05;9.50;;;4.33;;
58240;SDS011;45058;55.772;38.224;2023-02-13T06:09:31;12.40;;;4.60;;
58240;SDS011;45058;55.772;38.224;2023-02-13T06:11:57;9.73;;;4.40;;
58240;SDS011;45058;55.772;38.224;2023-02-13T06:14:23;14.07;;;4.20;;
58240;SDS011;45058;55.772;38.224;2023-02-13T06:16:49;7.97;;;3.77;;
58240;SDS011;45058;55.772;38.224;2023-02-13T06:19:15;8.23;;;4.53;;
58240;SDS011;45058;55.772;38.224;2023-02-13T06:21:41;10.57;;;4.20;;
58240;SDS011;45058;55.772;38.224;2023-02-13T06:24:07;10.47;;;5.07;;
58240;SDS011;45058;55.772;38.224;2023-02-13T06:26:33;11.50;;;5.70;;
58240;SDS011;45058;55.772;38.224;2023-02-13T06:28:59;10.83;;;4.90;;
58240;SDS011;45058;55.772;38.224;2023-02-13T06:31:25;11.63;;;4.13;;
58240;SDS011;45058;55.772;38.224;2023-02-13T06:33:51;10.17;;;4.57;;
58240;SDS011;45058;55.772;38.224;2023-02-13T06:36:17;11.37;;;5.03;;
58240;SDS011;45058;55.772;38.224;2023-02-13T06:38:43;10.90;;;4.80;;
58240;SDS011;45058;55.772;38.224;2023-02-13T06:41:09;11.07;;;4.97;;
58240;SDS011;45058;55.772;38.224;2023-02-13T06:43:35;8.57;;;4.63;;
58240;SDS011;45058;55.772;38.224;2023-02-13T06:46:05;9.30;;;5.00;;
58240;SDS011;45058;55.772;38.224;2023-02-13T06:48:31;9.03;;;4.80;;
58240;SDS011;45058;55.772;38.224;2023-02-13T06:50:58;13.77;;;5.17;;
58240;SDS011;45058;55.772;38.224;2023-02-13T06:53:26;17.90;;;6.67;;
58240;SDS011;45058;55.772;38.224;2023-02-13T06:55:52;11.90;;;5.07;;
58240;SDS011;45058;55.772;38.224;2023-02-13T06:58:19;10.87;;;4.60;;
58240;SDS011;45058;55.772;38.224;2023-02-13T07:00:46;11.30;;;4.73;;
58240;SDS011;45058;55.772;38.224;2023-02-13T07:03:12;9.40;;;4.73;;
58240;SDS011;45058;55.772;38.224;2023-02-13T07:05:39;10.87;;;4.73;;
58240;SDS011;45058;55.772;38.224;2023-02-13T07:08:07;12.47;;;5.00;;
58240;SDS011;45058;55.772;38.224;2023-02-13T07:10:35;10.60;;;4.93;;
58240;SDS011;45058;55.772;38.224;2023-02-13T07:13:03;10.67;;;5.50;;
58240;SDS011;45058;55.772;38.224;2023-02-13T07:15:30;10.77;;;5.33;;
58240;SDS011;45058;55.772;38.224;2023-02-13T07:17:57;14.13;;;4.93;;
58240;SDS011;45058;55.772;38.224;2023-02-13T07:20:24;14.37;;;5.90;;
58240;SDS011;45058;55.772;38.224;2023-02-13T07:22:51;11.13;;;5.57;;
58240;SDS011;45058;55.772;38.224;2023-02-13T07:25:17;19.47;;;6.53;;
58240;SDS011;45058;55.772;38.224;2023-02-13T07:27:43;14.30;;;6.00;;
58240;SDS011;45058;55.772;38.224;2023-02-13T07:30:10;11.23;;;5.53;;
58240;SDS011;45058;55.772;38.224;2023-02-13T07:32:36;16.43;;;5.10;;
58240;SDS011;45058;55.772;38.224;2023-02-13T07:35:02;18.77;;;6.57;;
58240;SDS011;45058;55.772;38.224;2023-02-13T07:37:30;13.53;;;6.70;;
58240;SDS011;45058;55.772;38.224;2023-02-13T07:39:56;16.07;;;6.63;;
58240;SDS011;45058;55.772;38.224;2023-02-13T07:42:22;13.70;;;6.53;;
58240;SDS011;45058;55.772;38.224;2023-02-13T07:44:48;20.23;;;6.50;;
58240;SDS011;45058;55.772;38.224;2023-02-13T07:47:21;11.43;;;6.10;;
58240;SDS011;45058;55.772;38.224;2023-02-13T07:49:48;10.30;;;5.80;;
58240;SDS011;45058;55.772;38.224;2023-02-13T07:52:15;13.63;;;6.33;;
58240;SDS011;45058;55.772;38.224;2023-02-13T07:54:43;18.73;;;6.27;;
58240;SDS011;45058;55.772;38.224;2023-02-13T07:57:12;11.97;;;5.40;;
58240;SDS011;45058;55.772;38.224;2023-02-13T07:59:39;16.30;;;8.07;;
58240;SDS011;45058;55.772;38.224;2023-02-13T08:02:11;17.00;;;8.80;;
58240;SDS011;45058;55.772;38.224;2023-02-13T08:04:39;18.77;;;8.30;;
58240;SDS011;45058;55.772;38.224;2023-02-13T08:07:05;12.33;;;6.67;;
58240;SDS011;45058;55.772;38.224;2023-02-13T08:09:31;14.93;;;6.10;;
58240;SDS011;45058;55.772;38.224;2023-02-13T08:12:16;13.53;;;4.73;;
58240;SDS011;45058;55.772;38.224;2023-02-13T08:14:42;12.90;;;5.87;;
58240;SDS011;45058;55.772;38.224;2023-02-13T08:17:08;13.17;;;5.70;;
58240;SDS011;45058;55.772;38.224;2023-02-13T08:19:35;15.07;;;5.17;;
58240;SDS011;45058;55.772;38.224;2023-02-13T08:22:01;8.17;;;4.80;;
58240;SDS011;45058;55.772;38.224;2023-02-13T08:24:27;10.93;;;5.70;;
58240;SDS011;45058;55.772;38.224;2023-02-13T08:26:54;12.40;;;6.30;;
58240;SDS011;45058;55.772;38.224;2023-02-13T08:29:20;13.33;;;5.43;;
58240;SDS011;45058;55.772;38.224;2023-02-13T08:31:47;15.23;;;6.47;;
58240;SDS011;45058;55.772;38.224;2023-02-13T08:34:12;15.00;;;5.87;;
58240;SDS011;45058;55.772;38.224;2023-02-13T08:36:39;15.83;;;8.20;;
58240;SDS011;45058;55.772;38.224;2023-02-13T08:39:05;19.00;;;7.77;;
58240;SDS011;45058;55.772;38.224;2023-02-13T08:41:31;16.67;;;7.60;;
58240;SDS011;45058;55.772;38.224;2023-02-13T08:43:57;20.13;;;8.87;;
58240;SDS011;45058;55.772;38.224;2023-02-13T08:46:23;15.27;;;7.30;;
58240;SDS011;45058;55.772;38.224;2023-02-13T08:48:49;17.87;;;7.03;;
58240;SDS011;45058;55.772;38.224;2023-02-13T08:51:15;13.27;;;6.47;;
58240;SDS011;45058;55.772;38.224;2023-02-13T08:53:42;15.27;;;6.37;;
58240;SDS011;45058;55.772;38.224;2023-02-13T08:56:08;17.20;;;6.83;;
58240;SDS011;45058;55.772;38.224;2023-02-13T08:58:34;23.47;;;8.33;;
58240;SDS011;45058;55.772;38.224;2023-02-13T09:01:03;20.00;;;7.50;;
58240;SDS011;45058;55.772;38.224;2023-02-13T09:03:30;15.03;;;7.70;;
58240;SDS011;45058;55.772;38.224;2023-02-13T09:05:59;17.07;;;7.93;;
58240;SDS011;45058;55.772;38.224;2023-02-13T09:08:26;17.03;;;7.50;;
58240;SDS011;45058;55.772;38.224;2023-02-13T09:10:57;14.67;;;6.47;;
58240;SDS011;45058;55.772;38.224;2023-02-13T09:13:26;15.17;;;8.23;;
58240;SDS011;45058;55.772;38.224;2023-02-13T09:15:53;12.23;;;6.90;;
58240;SDS011;45058;55.772;38.224;2023-02-13T09:18:19;18.97;;;7.87;;
58240;SDS011;45058;55.772;38.224;2023-02-13T09:20:45;12.23;;;6.30;;
58240;SDS011;45058;55.772;38.224;2023-02-13T09:23:11;13.17;;;6.73;;
58240;SDS011;45058;55.772;38.224;2023-02-13T09:25:37;11.90;;;5.97;;
58240;SDS011;45058;55.772;38.224;2023-02-13T09:28:03;20.47;;;9.83;;
58240;SDS011;45058;55.772;38.224;2023-02-13T09:30:30;16.60;;;7.60;;
58240;SDS011;45058;55.772;38.224;2023-02-13T09:32:56;17.97;;;8.33;;
58240;SDS011;45058;55.772;38.224;2023-02-13T09:35:22;20.07;;;7.40;;
58240;SDS011;45058;55.772;38.224;2023-02-13T09:37:48;12.90;;;7.50;;
58240;SDS011;45058;55.772;38.224;2023-02-13T09:40:16;14.63;;;6.93;;
58240;SDS011;45058;55.772;38.224;2023-02-13T09:42:45;15.60;;;6.93;;
58240;SDS011;45058;55.772;38.224;2023-02-13T09:45:11;17.00;;;6.60;;
58240;SDS011;45058;55.772;38.224;2023-02-13T09:47:40;12.63;;;6.73;;
58240;SDS011;45058;55.772;38.224;2023-02-13T09:50:15;13.70;;;7.63;;
58240;SDS011;45058;55.772;38.224;2023-02-13T09:52:54;15.30;;;8.27;;
58240;SDS011;45058;55.772;38.224;2023-02-13T09:58:14;14.17;;;8.13;;
58240;SDS011;45058;55.772;38.224;2023-02-13T10:00:51;20.43;;;8.97;;
58240;SDS011;45058;55.772;38.224;2023-02-13T10:03:35;16.17;;;9.00;;
58240;SDS011;45058;55.772;38.224;2023-02-13T10:06:36;20.57;;;11.00;;
58240;SDS011;45058;55.772;38.224;2023-02-13T10:14:46;17.90;;;8.07;;
58240;SDS011;45058;55.772;38.224;2023-02-13T10:17:25;15.63;;;8.33;;
58240;SDS011;45058;55.772;38.224;2023-02-13T10:26:01;15.33;;;7.50;;
58240;SDS011;45058;55.772;38.224;2023-02-13T10:31:03;15.03;;;7.47;;
58240;SDS011;45058;55.772;38.224;2023-02-13T10:33:50;22.00;;;8.60;;
58240;SDS011;45058;55.772;38.224;2023-02-13T10:36:19;17.87;;;8.07;;
58240;SDS011;45058;55.772;38.224;2023-02-13T10:41:35;14.17;;;7.50;;
58240;SDS011;45058;55.772;38.224;2023-02-13T10:47:33;13.10;;;6.63;;
58240;SDS011;45058;55.772;38.224;2023-02-13T10:50:20;11.75;;;6.90;;
58240;SDS011;45058;55.772;38.224;2023-02-13T10:55:54;12.07;;;7.63;;
58240;SDS011;45058;55.772;38.224;2023-02-13T11:00:55;15.83;;;7.50;;
58240;SDS011;45058;55.772;38.224;2023-02-13T11:03:27;14.03;;;7.30;;
58240;SDS011;45058;55.772;38.224;2023-02-13T11:05:54;20.17;;;8.77;;
58240;SDS011;45058;55.772;38.224;2023-02-13T11:08:23;19.20;;;8.63;;
58240;SDS011;45058;55.772;38.224;2023-02-13T11:10:55;17.60;;;9.23;;
58240;SDS011;45058;55.772;38.224;2023-02-13T11:13:22;31.10;;;14.80;;
58240;SDS011;45058;55.772;38.224;2023-02-13T11:15:57;26.23;;;12.10;;
58240;SDS011;45058;55.772;38.224;2023-02-13T11:18:26;22.90;;;10.87;;
58240;SDS011;45058;55.772;38.224;2023-02-13T11:21:13;20.30;;;9.97;;
58240;SDS011;45058;55.772;38.224;2023-02-13T11:23:52;20.20;;;10.93;;
58240;SDS011;45058;55.772;38.224;2023-02-13T11:26:21;24.57;;;10.97;;
58240;SDS011;45058;55.772;38.224;2023-02-13T11:28:53;33.93;;;15.70;;
58240;SDS011;45058;55.772;38.224;2023-02-13T11:31:27;26.93;;;12.67;;
58240;SDS011;45058;55.772;38.224;2023-02-13T11:33:58;25.27;;;11.97;;
58240;SDS011;45058;55.772;38.224;2023-02-13T11:36:29;21.73;;;10.27;;
58240;SDS011;45058;55.772;38.224;2023-02-13T11:38:57;16.10;;;9.23;;
58240;SDS011;45058;55.772;38.224;2023-02-13T11:41:35;18.87;;;9.57;;
58240;SDS011;45058;55.772;38.224;2023-02-13T11:44:04;17.57;;;8.60;;
58240;SDS011;45058;55.772;38.224;2023-02-13T11:46:42;21.00;;;9.40;;
58240;SDS011;45058;55.772;38.224;2023-02-13T11:49:18;18.07;;;9.17;;
58240;SDS011;45058;55.772;38.224;2023-02-13T11:51:46;18.57;;;9.83;;
58240;SDS011;45058;55.772;38.224;2023-02-13T11:59:56;70.90;;;25.70;;
58240;SDS011;45058;55.772;38.224;2023-02-13T12:02:30;62.67;;;25.87;;
58240;SDS011;45058;55.772;38.224;2023-02-13T12:05:20;33.90;;;15.70;;
58240;SDS011;45058;55.772;38.224;2023-02-13T12:07:48;24.73;;;11.30;;
58240;SDS011;45058;55.772;38.224;2023-02-13T12:12:45;25.23;;;12.03;;
58240;SDS011;45058;55.772;38.224;2023-02-13T12:15:24;20.27;;;11.03;;
58240;SDS011;45058;55.772;38.224;2023-02-13T12:20:42;25.43;;;9.33;;
58240;SDS011;45058;55.772;38.224;2023-02-13T12:26:25;16.70;;;10.43;;
58240;SDS011;45058;55.772;38.224;2023-02-13T12:29:01;25.40;;;10.47;;
58240;SDS011;45058;55.772;38.224;2023-02-13T12:45:45;28.23;;;12.60;;
58240;SDS011;45058;55.772;38.224;2023-02-13T12:54:22;21.23;;;10.90;;
58240;SDS011;45058;55.772;38.224;2023-02-13T13:10:12;19.43;;;11.07;;
58240;SDS011;45058;55.772;38.224;2023-02-13T13:13:00;24.10;;;11.77;;
58240;SDS011;45058;55.772;38.224;2023-02-13T13:18:40;17.30;;;9.90;;
58240;SDS011;45058;55.772;38.224;2023-02-13T13:21:34;22.73;;;9.40;;
58240;SDS011;45058;55.772;38.224;2023-02-13T13:29:09;23.27;;;11.47;;
58240;SDS011;45058;55.772;38.224;2023-02-13T13:31:41;20.98;;;11.20;;
58240;SDS011;45058;55.772;38.224;2023-02-13T13:34:22;22.50;;;12.20;;
58240;SDS011;45058;55.772;38.224;2023-02-13T13:42:24;16.90;;;10.83;;
58240;SDS011;45058;55.772;38.224;2023-02-13T13:50:19;62.00;;;33.07;;
58240;SDS011;45058;55.772;38.224;2023-02-13T14:03:44;27.63;;;13.43;;
58240;SDS011;45058;55.772;38.224;2023-02-13T14:06:28;22.57;;;12.87;;
58240;SDS011;45058;55.772;38.224;2023-02-13T14:11:51;24.30;;;10.50;;
58240;SDS011;45058;55.772;38.224;2023-02-13T14:16:53;26.70;;;13.90;;
58240;SDS011;45058;55.772;38.224;2023-02-13T14:19:39;20.83;;;13.23;;
58240;SDS011;45058;55.772;38.224;2023-02-13T14:24:58;27.43;;;14.63;;
58240;SDS011;45058;55.772;38.224;2023-02-13T14:27:31;26.97;;;15.23;;
58240;SDS011;45058;55.772;38.224;2023-02-13T14:29:59;31.27;;;15.63;;
58240;SDS011;45058;55.772;38.224;2023-02-13T14:34:59;26.23;;;14.33;;
58240;SDS011;45058;55.772;38.224;2023-02-13T14:37:36;32.50;;;16.70;;
58240;SDS011;45058;55.772;38.224;2023-02-13T14:40:47;27.17;;;15.83;;
58240;SDS011;45058;55.772;38.224;2023-02-13T14:48:36;31.95;;;15.20;;
58240;SDS011;45058;55.772;38.224;2023-02-13T14:51:16;24.73;;;14.43;;
58240;SDS011;45058;55.772;38.224;2023-02-13T14:56:45;24.67;;;12.47;;
58240;SDS011;45058;55.772;38.224;2023-02-13T14:59:13;24.13;;;12.07;;
58240;SDS011;45058;55.772;38.224;2023-02-13T15:01:45;27.57;;;12.77;;
58240;SDS011;45058;55.772;38.224;2023-02-13T15:04:25;25.05;;;11.82;;
58240;SDS011;45058;55.772;38.224;2023-02-13T15:06:56;27.83;;;12.53;;
58240;SDS011;45058;55.772;38.224;2023-02-13T15:09:26;22.90;;;12.13;;
58240;SDS011;45058;55.772;38.224;2023-02-13T15:12:00;19.87;;;8.57;;
58240;SDS011;45058;55.772;38.224;2023-02-13T15:14:33;24.93;;;11.00;;
58240;SDS011;45058;55.772;38.224;2023-02-13T15:17:05;20.97;;;9.73;;
58240;SDS011;45058;55.772;38.224;2023-02-13T15:19:34;22.27;;;9.93;;
58240;SDS011;45058;55.772;38.224;2023-02-13T15:22:03;22.10;;;10.40;;
58240;SDS011;45058;55.772;38.224;2023-02-13T15:24:42;26.57;;;9.37;;
58240;SDS011;45058;55.772;38.224;2023-02-13T15:27:13;19.47;;;9.17;;
58240;SDS011;45058;55.772;38.224;2023-02-13T15:29:56;22.20;;;8.87;;
58240;SDS011;45058;55.772;38.224;2023-02-13T15:32:27;19.90;;;8.83;;
58240;SDS011;45058;55.772;38.224;2023-02-13T15:34:57;20.40;;;8.43;;
58240;SDS011;45058;55.772;38.224;2023-02-13T15:37:26;17.03;;;6.60;;
58240;SDS011;45058;55.772;38.224;2023-02-13T15:39:53;17.17;;;6.70;;
58240;SDS011;45058;55.772;38.224;2023-02-13T15:42:20;16.17;;;7.03;;
58240;SDS011;45058;55.772;38.224;2023-02-13T15:44:47;12.80;;;6.13;;
58240;SDS011;45058;55.772;38.224;2023-02-13T15:47:28;11.00;;;7.33;;
58240;SDS011;45058;55.772;38.224;2023-02-13T15:49:56;19.67;;;6.63;;
58240;SDS011;45058;55.772;38.224;2023-02-13T15:54:58;15.23;;;7.20;;
58240;SDS011;45058;55.772;38.224;2023-02-13T15:57:25;13.50;;;6.90;;
58240;SDS011;45058;55.772;38.224;2023-02-13T15:59:53;14.80;;;7.33;;
58240;SDS011;45058;55.772;38.224;2023-02-13T16:02:23;13.57;;;6.80;;
58240;SDS011;45058;55.772;38.224;2023-02-13T16:04:56;14.40;;;7.20;;
58240;SDS011;45058;55.772;38.224;2023-02-13T16:07:24;16.67;;;7.37;;
58240;SDS011;45058;55.772;38.224;2023-02-13T16:09:50;11.87;;;7.97;;
58240;SDS011;45058;55.772;38.224;2023-02-13T16:12:21;15.90;;;7.77;;
58240;SDS011;45058;55.772;38.224;2023-02-13T16:14:52;16.53;;;8.47;;
58240;SDS011;45058;55.772;38.224;2023-02-13T16:17:39;16.43;;;9.10;;
58240;SDS011;45058;55.772;38.224;2023-02-13T16:25:17;16.70;;;8.60;;
58240;SDS011;45058;55.772;38.224;2023-02-13T16:27:54;13.67;;;8.30;;
58240;SDS011;45058;55.772;38.224;2023-02-13T16:30:32;17.50;;;9.27;;
58240;SDS011;45058;55.772;38.224;2023-02-13T16:35:42;17.43;;;9.33;;
58240;SDS011;45058;55.772;38.224;2023-02-13T16:41:03;17.13;;;7.63;;
58240;SDS011;45058;55.772;38.224;2023-02-13T16:43:47;18.93;;;9.47;;
58240;SDS011;45058;55.772;38.224;2023-02-13T16:49:12;14.97;;;9.63;;
58240;SDS011;45058;55.772;38.224;2023-02-13T16:51:44;14.47;;;9.73;;
58240;SDS011;45058;55.772;38.224;2023-02-13T16:56:49;13.67;;;9.53;;
58240;SDS011;45058;55.772;38.224;2023-02-13T16:59:27;20.23;;;9.83;;
58240;SDS011;45058;55.772;38.224;2023-02-13T17:02:19;17.97;;;10.30;;
58240;SDS011;45058;55.772;38.224;2023-02-13T17:05:00;18.70;;;10.67;;
58240;SDS011;45058;55.772;38.224;2023-02-13T17:10:23;14.40;;;10.57;;
58240;SDS011;45058;55.772;38.224;2023-02-13T17:12:56;15.07;;;10.90;;
58240;SDS011;45058;55.772;38.224;2023-02-13T17:15:25;16.80;;;10.60;;
58240;SDS011;45058;55.772;38.224;2023-02-13T17:17:53;19.03;;;11.27;;
58240;SDS011;45058;55.772;38.224;2023-02-13T17:20:24;16.83;;;10.43;;
58240;SDS011;45058;55.772;38.224;2023-02-13T17:22:52;15.77;;;10.80;;
58240;SDS011;45058;55.772;38.224;2023-02-13T17:25:27;18.63;;;11.90;;
58240;SDS011;45058;55.772;38.224;2023-02-13T17:27:58;15.13;;;10.83;;
58240;SDS011;45058;55.772;38.224;2023-02-13T17:30:27;16.17;;;11.23;;
58240;SDS011;45058;55.772;38.224;2023-02-13T17:33:15;18.27;;;11.20;;
58240;SDS011;45058;55.772;38.224;2023-02-13T17:35:46;15.43;;;10.53;;
58240;SDS011;45058;55.772;38.224;2023-02-13T17:38:12;24.43;;;12.07;;
58240;SDS011;45058;55.772;38.224;2023-02-13T17:40:39;15.27;;;11.50;;
58240;SDS011;45058;55.772;38.224;2023-02-13T17:43:06;21.47;;;12.13;;
58240;SDS011;45058;55.772;38.224;2023-02-13T17:45:38;17.03;;;12.30;;
58240;SDS011;45058;55.772;38.224;2023-02-13T17:48:04;19.43;;;12.40;;
58240;SDS011;45058;55.772;38.224;2023-02-13T17:50:30;20.37;;;11.80;;
58240;SDS011;45058;55.772;38.224;2023-02-13T17:52:57;21.17;;;12.60;;
58240;SDS011;45058;55.772;38.224;2023-02-13T17:55:27;20.83;;;12.30;;
58240;SDS011;45058;55.772;38.224;2023-02-13T17:57:55;22.93;;;12.87;;